Edward Cornwallis — CGJV — position and weather

sailwx.info

Track history (hours):
 
Tides and Currents Weather Stations Pressure Air Temp Water Temp Dewpoint Dewpoint Depression Visibility Wind Speed Wind Dir Waves Ship Positions

Edward Cornwallis

Last reported at 2015-May-19 08:28 UTC. Time now 2015-May-30 08:28 UTC.
Position N 44°41' W 063°37'.
Warning: this ship's position is 10 days out of date.

Length 83 m; draft 6 m.

Type: SAR. MMSI: 316020000.

Date/timePositionNaut miles runAvg speedWind from/ knotsBaromVisibWave heightAir tempDewpointWater temp
2015-May-19 08:28N 44°41' W 063°37'0 0.0
2015-May-19 07:31N 44°41' W 063°37'0 0.0
2015-May-19 06:31N 44°41' W 063°37'0 0.0
2015-May-19 05:31N 44°41' W 063°37'0 0.0
2015-May-19 04:19N 44°41' W 063°37'0 0.0
2015-May-19 03:19N 44°41' W 063°37'0 0.0
2015-May-19 02:31N 44°41' W 063°37'0 0.0
2015-May-19 01:22N 44°41' W 063°37'0 0.0
2015-May-19 00:10N 44°41' W 063°37'0 0.0
2015-May-18 23:22N 44°41' W 063°37'0 0.0
2015-May-18 22:25N 44°41' W 063°37'0 0.0
2015-May-18 21:25N 44°41' W 063°37'0 0.0
2015-May-18 20:28N 44°41' W 063°37'0 0.0
2015-May-18 19:25N 44°41' W 063°37'0 0.0
2015-May-18 18:31N 44°41' W 063°37'0 0.0
2015-May-18 17:31N 44°41' W 063°37'0 0.0
2015-May-18 16:31N 44°41' W 063°37'0 0.0
2015-May-18 15:31N 44°41' W 063°37'0 0.0
2015-May-18 14:31N 44°41' W 063°37'0 0.0
2015-May-18 13:19N 44°41' W 063°37'0 0.0
2015-May-18 12:31N 44°41' W 063°37'0 0.0
2015-May-18 11:31N 44°41' W 063°37'0 0.0
2015-May-18 10:22N 44°41' W 063°37'4 5.0
2015-May-18 09:33N 44°38' W 063°33'1211.8
2015-May-18 08:33N 44°28' W 063°24'1211.1
2015-May-18 07:27N 44°30' W 063°07'7 7.1
2015-May-18 06:31N 44°32' W 062°59'  
2015-May-14 00:08N 44°34' W 063°01'813.3
2015-May-13 23:33N 44°34' W 063°12'1313.2
2015-May-13 22:33N 44°33' W 063°31'9 8.6
2015-May-13 21:33N 44°41' W 063°37'0 0.0
2015-May-13 20:25N 44°41' W 063°37'0 0.0
2015-May-13 19:25N 44°41' W 063°37'0 0.0
2015-May-13 18:28N 44°41' W 063°37'0 0.0
2015-May-13 17:28N 44°41' W 063°37'0 0.0
2015-May-13 16:28N 44°41' W 063°37'0 0.0
2015-May-13 15:31N 44°41' W 063°37'0 0.0
2015-May-13 14:31N 44°41' W 063°37'0 0.0
2015-May-13 13:31N 44°41' W 063°37'0 0.0
2015-May-13 12:31N 44°41' W 063°37'0 0.0
2015-May-13 11:31N 44°41' W 063°37'1 0.7
2015-May-13 10:33N 44°40' W 063°36'9 9.4
2015-May-13 09:33N 44°33' W 063°28'48412.6
2015-May-11 19:18N 47°26' W 052°37'810.8
2015-May-11 18:33N 47°34' W 052°41'1 1.1
2015-May-11 17:33N 47°34' W 052°42'  
Track history (hours):
 
Tides and Currents Weather Stations Pressure Air Temp Water Temp Dewpoint Dewpoint Depression Visibility Wind Speed Wind Dir Waves Ship Positions

Edward Cornwallis

Last reported at 2015-May-19 08:28 UTC. Time now 2015-May-30 08:28 UTC.
Position N 44°41' W 063°37'.
Warning: this ship's position is 10 days out of date.

Length 83 m; draft 6 m.

Type: SAR. MMSI: 316020000.

Date/timePositionNaut miles runAvg speedWind from/ knotsBaromVisibWave heightAir tempDewpointWater temp
2015-May-19 08:28N 44°41' W 063°37'0 0.0
2015-May-19 07:31N 44°41' W 063°37'0 0.0
2015-May-19 06:31N 44°41' W 063°37'0 0.0
2015-May-19 05:31N 44°41' W 063°37'0 0.0
2015-May-19 04:19N 44°41' W 063°37'0 0.0
2015-May-19 03:19N 44°41' W 063°37'0 0.0
2015-May-19 02:31N 44°41' W 063°37'0 0.0
2015-May-19 01:22N 44°41' W 063°37'0 0.0
2015-May-19 00:10N 44°41' W 063°37'0 0.0
2015-May-18 23:22N 44°41' W 063°37'0 0.0
2015-May-18 22:25N 44°41' W 063°37'0 0.0
2015-May-18 21:25N 44°41' W 063°37'0 0.0
2015-May-18 20:28N 44°41' W 063°37'0 0.0
2015-May-18 19:25N 44°41' W 063°37'0 0.0
2015-May-18 18:31N 44°41' W 063°37'0 0.0
2015-May-18 17:31N 44°41' W 063°37'0 0.0
2015-May-18 16:31N 44°41' W 063°37'0 0.0
2015-May-18 15:31N 44°41' W 063°37'0 0.0
2015-May-18 14:31N 44°41' W 063°37'0 0.0
2015-May-18 13:19N 44°41' W 063°37'0 0.0
2015-May-18 12:31N 44°41' W 063°37'0 0.0
2015-May-18 11:31N 44°41' W 063°37'0 0.0
2015-May-18 10:22N 44°41' W 063°37'4 5.0
2015-May-18 09:33N 44°38' W 063°33'1211.8
2015-May-18 08:33N 44°28' W 063°24'1211.1
2015-May-18 07:27N 44°30' W 063°07'7 7.1
2015-May-18 06:31N 44°32' W 062°59'  
2015-May-14 00:08N 44°34' W 063°01'813.3
2015-May-13 23:33N 44°34' W 063°12'1313.2
2015-May-13 22:33N 44°33' W 063°31'9 8.6
2015-May-13 21:33N 44°41' W 063°37'0 0.0
2015-May-13 20:25N 44°41' W 063°37'0 0.0
2015-May-13 19:25N 44°41' W 063°37'0 0.0
2015-May-13 18:28N 44°41' W 063°37'0 0.0
2015-May-13 17:28N 44°41' W 063°37'0 0.0
2015-May-13 16:28N 44°41' W 063°37'0 0.0
2015-May-13 15:31N 44°41' W 063°37'0 0.0
2015-May-13 14:31N 44°41' W 063°37'0 0.0
2015-May-13 13:31N 44°41' W 063°37'0 0.0
2015-May-13 12:31N 44°41' W 063°37'0 0.0
2015-May-13 11:31N 44°41' W 063°37'1 0.7
2015-May-13 10:33N 44°40' W 063°36'9 9.4
2015-May-13 09:33N 44°33' W 063°28'48412.6
2015-May-11 19:18N 47°26' W 052°37'810.8
2015-May-11 18:33N 47°34' W 052°41'1 1.1
2015-May-11 17:33N 47°34' W 052°42'  

Dump ship's entire track history